Time;durP1;ratioP1;P1;durP2;ratioP2;P2;SDS_P1;SDS_P2;PMS_P1;PMS_P2;Temp;Humidity;BMP_temperature;BMP_pressure;BME280_temperature;BME280_humidity;BME280_pressure;Samples;Min_cycle;Max_cycle;Signal;HPM_P1;HPM_P2
2022/03/24 00:01:36;;;;;;;43.85;32.45;;;;;;;2.50;84.72;103025.25;5029709;28;20558;-41
2022/03/24 00:04:01;;;;;;;41.75;32.72;;;;;;;2.61;85.09;103019.41;5034571;28;20226;-43
2022/03/24 00:06:27;;;;;;;46.33;34.17;;;;;;;2.58;85.26;103013.13;5049842;28;20178;-45
2022/03/24 00:08:52;;;;;;;46.95;32.72;;;;;;;2.56;85.07;103018.38;5049743;28;20171;-45
2022/03/24 00:11:18;;;;;;;44.63;32.08;;;;;;;2.61;85.01;103015.88;5048203;28;20172;-42
2022/03/24 00:13:44;;;;;;;45.63;32.58;;;;;;;2.58;84.83;103013.13;5048037;28;20202;-41
2022/03/24 00:16:09;;;;;;;46.38;33.75;;;;;;;2.57;84.68;103016.63;5049700;28;20712;-43
2022/03/24 00:18:35;;;;;;;48.70;33.92;;;;;;;2.32;85.20;103015.88;5049535;28;20202;-43
2022/03/24 00:21:02;;;;;;;44.08;32.30;;;;;;;2.29;85.50;103020.16;5049659;28;20207;-44
2022/03/24 00:23:28;;;;;;;45.65;32.97;;;;;;;2.20;86.02;103010.19;5049100;28;20164;-44
2022/03/24 00:25:54;;;;;;;47.33;34.25;;;;;;;2.16;86.10;103011.84;5049988;28;20187;-43
2022/03/24 00:28:19;;;;;;;48.75;34.33;;;;;;;2.14;87.00;103002.97;5049689;28;20264;-43
2022/03/24 00:30:44;;;;;;;48.67;35.70;;;;;;;2.14;87.27;103004.72;5049280;28;20285;-41
2022/03/24 00:33:11;;;;;;;47.10;33.97;;;;;;;2.10;87.14;103013.38;5049544;28;20186;-43
2022/03/24 00:35:37;;;;;;;45.90;33.78;;;;;;;2.02;87.35;103008.78;5049329;28;20191;-42
2022/03/24 00:38:02;;;;;;;49.42;33.65;;;;;;;2.02;87.87;103007.88;5049341;28;20182;-43
2022/03/24 00:40:28;;;;;;;48.30;34.00;;;;;;;2.10;87.70;103013.38;5057234;22;20617;-38
2022/03/24 00:42:54;;;;;;;47.17;33.70;;;;;;;2.16;87.72;103010.94;5030338;28;20634;-41
2022/03/24 00:45:20;;;;;;;49.75;33.10;;;;;;;2.20;87.15;103004.91;5031992;28;20192;-38
2022/03/24 00:47:46;;;;;;;47.08;34.22;;;;;;;1.99;87.16;103010.41;5031133;28;20220;-39
2022/03/24 00:50:13;;;;;;;45.13;33.97;;;;;;;1.90;87.23;103015.41;5033701;28;20270;-39
2022/03/24 00:52:44;;;;;;;51.13;35.83;;;;;;;1.88;87.69;103025.94;5032854;28;20175;-40
2022/03/24 00:55:12;;;;;;;47.65;35.25;;;;;;;1.92;88.32;103013.69;5033538;28;20290;-40
2022/03/24 00:57:42;;;;;;;48.25;34.72;;;;;;;2.02;88.32;103010.53;5033520;28;20262;-41
2022/03/24 01:00:09;;;;;;;47.80;34.00;;;;;;;1.82;87.89;103012.53;5032230;28;20711;-42
2022/03/24 01:02:37;;;;;;;46.95;33.22;;;;;;;1.92;88.51;103014.59;5032971;28;20164;-42
2022/03/24 01:05:06;;;;;;;51.72;35.63;;;;;;;1.79;87.84;103015.97;5018151;28;20212;-42
2022/03/24 01:07:33;;;;;;;48.30;34.75;;;;;;;1.80;88.72;103016.84;5012466;28;20168;-42
2022/03/24 01:09:59;;;;;;;44.17;32.92;;;;;;;1.83;89.12;103001.09;5014129;28;20165;-39
2022/03/24 01:12:24;;;;;;;48.55;33.90;;;;;;;1.97;88.81;103002.44;5013425;28;20192;-43
2022/03/24 01:14:50;;;;;;;50.25;33.80;;;;;;;1.84;88.45;103016.13;5014359;28;20211;-41
2022/03/24 01:17:16;;;;;;;45.97;32.88;;;;;;;1.65;88.75;103004.91;5011907;28;20612;-41
2022/03/24 01:19:42;;;;;;;48.92;34.05;;;;;;;1.69;89.06;103003.28;5013304;28;20169;-39
2022/03/24 01:22:08;;;;;;;51.08;34.20;;;;;;;1.75;89.26;102995.56;5013118;28;20235;-40
2022/03/24 01:24:37;;;;;;;43.55;33.13;;;;;;;1.77;89.15;102990.31;5011392;28;20192;-40
2022/03/24 01:27:05;;;;;;;45.42;33.72;;;;;;;1.70;89.08;102996.25;5013028;28;20615;-40
2022/03/24 01:29:31;;;;;;;48.95;32.83;;;;;;;1.68;89.20;102995.28;5013239;28;20703;-41
2022/03/24 01:31:57;;;;;;;50.67;34.58;;;;;;;1.74;89.41;102990.22;5011778;28;20179;-39
2022/03/24 01:34:24;;;;;;;51.05;35.25;;;;;;;1.69;89.19;102992.72;5012942;28;20213;-41
2022/03/24 01:36:52;;;;;;;51.03;35.17;;;;;;;1.68;88.82;102992.66;5012852;28;20164;-40
2022/03/24 01:39:17;;;;;;;50.35;35.22;;;;;;;1.58;88.56;102996.75;5012954;28;20619;-40
2022/03/24 01:41:45;;;;;;;52.90;34.85;;;;;;;1.52;89.63;102991.25;5011037;28;20275;-41
2022/03/24 01:44:14;;;;;;;50.95;35.90;;;;;;;1.48;89.49;102990.22;4995042;28;20204;-42
2022/03/24 01:47:03;;;;;;;48.92;35.28;;;;;;;1.48;89.49;102982.31;5012843;28;20296;-43
2022/03/24 01:49:31;;;;;;;50.88;35.03;;;;;;;1.41;90.05;102990.88;5010881;28;20238;-41
2022/03/24 01:51:57;;;;;;;51.10;35.38;;;;;;;1.33;89.78;102987.06;5011495;28;20539;-41
2022/03/24 01:54:25;;;;;;;48.05;34.47;;;;;;;1.23;89.98;102980.59;5011764;28;20287;-41
2022/03/24 01:56:52;;;;;;;46.70;33.88;;;;;;;1.32;90.77;102985.28;5011457;28;20176;-41
2022/03/24 01:59:19;;;;;;;53.88;36.35;;;;;;;1.33;90.33;102982.69;5011376;28;20204;-38
2022/03/24 02:01:48;;;;;;;52.70;34.53;;;;;;;1.32;90.55;102977.38;5012974;28;20247;-41
2022/03/24 02:04:15;;;;;;;51.28;34.28;;;;;;;1.15;90.72;102972.38;5012171;28;20288;-42
2022/03/24 02:06:40;;;;;;;53.63;36.75;;;;;;;1.10;90.70;102971.31;5011703;28;20164;-39
2022/03/24 02:09:07;;;;;;;52.83;35.80;;;;;;;0.97;90.81;102972.63;5010970;28;20296;-39
2022/03/24 02:11:34;;;;;;;55.05;36.58;;;;;;;1.05;91.75;102975.56;5010850;28;20192;-40
2022/03/24 02:14:01;;;;;;;50.88;33.72;;;;;;;1.07;91.51;102973.84;5010375;28;20212;-41
2022/03/24 02:16:34;;;;;;;58.92;36.17;;;;;;;1.15;91.78;102964.47;5007489;28;20730;-40
2022/03/24 02:19:10;;;;;;;51.20;35.40;;;;;;;1.11;91.10;102966.94;5025546;28;20181;-41
2022/03/24 02:21:37;;;;;;;48.70;33.33;;;;;;;1.19;91.76;102961.09;5028324;28;20180;-41
2022/03/24 02:24:03;;;;;;;50.80;33.30;;;;;;;1.20;91.35;102962.91;5030133;28;20435;-41
2022/03/24 02:26:28;;;;;;;49.30;34.08;;;;;;;1.24;90.82;102959.50;5027876;28;20172;-41
2022/03/24 02:28:56;;;;;;;49.50;34.10;;;;;;;1.31;90.86;102954.44;5030379;28;20540;-42
2022/03/24 02:31:22;;;;;;;52.20;35.33;;;;;;;1.34;90.47;102955.44;5031334;28;20559;-43
2022/03/24 02:33:48;;;;;;;54.72;36.85;;;;;;;1.08;90.29;102954.53;5029113;28;20203;-41
2022/03/24 02:36:14;;;;;;;49.72;34.22;;;;;;;1.07;90.33;102954.47;5031312;28;20180;-42
2022/03/24 02:38:39;;;;;;;59.33;37.45;;;;;;;0.98;90.63;102953.34;5031160;28;20286;-40
2022/03/24 02:41:05;;;;;;;52.92;36.55;;;;;;;1.05;90.85;102943.88;5031304;28;20187;-41
2022/03/24 02:43:31;;;;;;;52.65;35.20;;;;;;;0.99;90.69;102946.31;5030569;28;20192;-40
2022/03/24 02:45:56;;;;;;;48.92;36.17;;;;;;;1.05;90.90;102953.50;5031356;28;20183;-41
2022/03/24 02:48:22;;;;;;;47.65;34.40;;;;;;;1.16;91.21;102942.50;5030806;28;20175;-40
2022/03/24 02:50:48;;;;;;;48.75;34.85;;;;;;;1.22;91.08;102932.16;5031503;28;20520;-41
2022/03/24 02:53:15;;;;;;;59.65;37.03;;;;;;;1.06;89.97;102940.38;5030939;28;20528;-39
2022/03/24 02:55:41;;;;;;;52.53;36.50;;;;;;;1.04;90.71;102934.16;5031550;28;20203;-39
2022/03/24 02:58:06;;;;;;;51.78;35.78;;;;;;;1.03;90.83;102935.00;5030952;28;20250;-40
2022/03/24 03:00:32;;;;;;;49.53;33.10;;;;;;;1.13;90.72;102936.22;5029692;28;20647;-41
2022/03/24 03:02:57;;;;;;;52.95;35.63;;;;;;;1.11;90.57;102941.44;5030329;28;20180;-40
2022/03/24 03:05:23;;;;;;;51.90;35.75;;;;;;;1.01;90.22;102936.69;5014416;28;20307;-39
2022/03/24 03:07:49;;;;;;;48.97;35.13;;;;;;;0.83;90.82;102939.56;5011013;28;20588;-42
2022/03/24 03:10:15;;;;;;;54.97;36.10;;;;;;;0.85;91.44;102940.50;5011269;28;20184;-39
2022/03/24 03:12:44;;;;;;;54.50;36.22;;;;;;;0.74;91.52;102940.13;5009212;28;20168;-40
2022/03/24 03:15:10;;;;;;;49.22;32.92;;;;;;;0.82;91.76;102943.06;5010732;28;20213;-40
2022/03/24 03:17:36;;;;;;;56.83;36.40;;;;;;;0.63;91.88;102952.03;5010767;28;20309;-40
2022/03/24 03:20:05;;;;;;;52.75;36.05;;;;;;;0.62;92.46;102952.88;5011135;28;20177;-40
2022/03/24 03:22:32;;;;;;;51.50;35.75;;;;;;;0.60;93.20;102944.91;5010627;28;20658;-41
2022/03/24 03:24:58;;;;;;;55.65;36.83;;;;;;;0.54;93.56;102942.03;5010390;28;20180;-40
2022/03/24 03:27:24;;;;;;;54.20;36.47;;;;;;;0.40;93.08;102941.53;5010980;28;20169;-39
2022/03/24 03:29:49;;;;;;;56.53;36.78;;;;;;;0.40;94.08;102941.53;5010561;28;20187;-37
2022/03/24 03:32:15;;;;;;;57.67;37.38;;;;;;;0.52;94.89;102942.81;5010425;28;20179;-40
2022/03/24 03:34:41;;;;;;;50.95;33.22;;;;;;;0.64;94.55;102938.00;5010748;28;20714;-39
2022/03/24 03:37:08;;;;;;;57.38;37.80;;;;;;;0.70;94.12;102942.59;5010492;28;20218;-39
2022/03/24 03:39:34;;;;;;;56.63;38.42;;;;;;;0.62;93.87;102952.88;5010778;28;20572;-41
2022/03/24 03:41:59;;;;;;;54.22;37.33;;;;;;;0.57;93.53;102943.91;5010025;28;20659;-39
2022/03/24 03:44:25;;;;;;;52.17;35.63;;;;;;;0.47;93.47;102944.41;5010395;28;20247;-40
2022/03/24 03:46:51;;;;;;;56.95;37.58;;;;;;;0.42;94.51;102946.88;5010295;28;20168;-38
2022/03/24 03:49:17;;;;;;;56.28;37.63;;;;;;;0.40;94.62;102946.81;5010017;28;20196;-40
2022/03/24 03:51:43;;;;;;;56.70;37.83;;;;;;;0.41;94.33;102942.41;5010613;28;20200;-39
2022/03/24 03:54:08;;;;;;;56.53;37.47;;;;;;;0.46;94.49;102938.25;5008666;28;20616;-40
2022/03/24 03:56:36;;;;;;;55.83;36.72;;;;;;;0.50;94.85;102953.31;5010252;28;20196;-42
2022/03/24 03:59:02;;;;;;;55.58;37.20;;;;;;;0.47;94.37;102947.03;5010467;28;20179;-41
2022/03/24 04:01:28;;;;;;;56.00;38.22;;;;;;;0.29;94.62;102947.25;5010004;28;20270;-41
2022/03/24 04:03:54;;;;;;;56.85;38.13;;;;;;;0.32;94.77;102945.59;5009736;28;20185;-41
2022/03/24 04:06:19;;;;;;;62.15;39.17;;;;;;;0.27;94.95;102939.28;5010116;28;20658;-40
2022/03/24 04:08:45;;;;;;;59.67;37.38;;;;;;;0.26;94.89;102944.47;5010463;28;20213;-41
2022/03/24 04:11:12;;;;;;;59.80;37.95;;;;;;;0.29;95.93;102948.13;5009871;28;20172;-41
2022/03/24 04:13:39;;;;;;;57.05;37.58;;;;;;;0.33;95.48;102946.53;5009068;28;20578;-40
2022/03/24 04:16:06;;;;;;;59.38;37.85;;;;;;;0.45;95.45;102939.06;5010144;28;20179;-41
2022/03/24 04:18:32;;;;;;;58.38;37.08;;;;;;;0.57;95.20;102941.28;5022193;28;20172;-40
2022/03/24 04:20:58;;;;;;;57.55;36.95;;;;;;;0.66;95.39;102948.63;5029826;28;20653;-40
2022/03/24 04:23:24;;;;;;;51.17;34.90;;;;;;;0.67;94.47;102946.03;5029131;28;20176;-40
2022/03/24 04:25:50;;;;;;;55.58;35.15;;;;;;;0.67;94.06;102945.13;5029559;28;20281;-40
2022/03/24 04:28:15;;;;;;;53.60;36.42;;;;;;;0.64;93.67;102947.69;5025679;28;20418;-41
2022/03/24 04:30:42;;;;;;;52.55;35.08;;;;;;;0.66;93.64;102946.00;5028373;28;20184;-41
2022/03/24 04:33:08;;;;;;;55.85;36.88;;;;;;;0.56;92.91;102947.38;5029105;28;20180;-40
2022/03/24 04:35:34;;;;;;;56.67;37.40;;;;;;;0.56;92.97;102947.38;5029803;28;20225;-40
2022/03/24 04:37:59;;;;;;;54.20;35.60;;;;;;;0.52;93.44;102941.06;5030233;28;20646;-40
2022/03/24 04:40:25;;;;;;;58.33;36.95;;;;;;;0.31;92.50;102946.47;5029539;28;20179;-42
2022/03/24 04:42:52;;;;;;;61.53;38.30;;;;;;;0.17;94.05;102953.81;5029319;28;20211;-41
2022/03/24 04:45:19;;;;;;;61.03;39.63;;;;;;;0.10;94.15;102946.53;5029485;28;20246;-41
2022/03/24 04:47:45;;;;;;;59.35;38.97;;;;;;;0.14;94.91;102942.28;5028288;28;20164;-42
2022/03/24 04:50:12;;;;;;;60.22;39.05;;;;;;;0.20;95.21;102948.69;5029421;28;20532;-43
2022/03/24 04:52:37;;;;;;;54.08;36.08;;;;;;;0.23;95.31;102952.28;5028937;28;20237;-43
2022/03/24 04:55:04;;;;;;;60.47;38.35;;;;;;;0.26;95.63;102948.00;5029023;28;20685;-43
2022/03/24 04:57:29;;;;;;;55.88;36.63;;;;;;;0.17;95.58;102945.03;5029611;28;20172;-41
2022/03/24 04:59:57;;;;;;;59.53;39.00;;;;;;;0.21;95.43;102941.66;5029064;28;20178;-42
2022/03/24 05:02:24;;;;;;;58.95;37.53;;;;;;;0.24;95.07;102938.25;5029105;28;20180;-43
2022/03/24 05:04:50;;;;;;;58.22;38.17;;;;;;;0.30;95.78;102938.47;5017212;28;20192;-42
2022/03/24 05:07:16;;;;;;;52.47;36.03;;;;;;;0.39;95.07;102947.66;5009120;28;20713;-43
2022/03/24 05:09:41;;;;;;;60.20;38.03;;;;;;;0.37;95.06;102935.22;5009592;28;20208;-42
2022/03/24 05:12:07;;;;;;;53.10;36.17;;;;;;;0.44;94.81;102941.63;5009132;28;20176;-43
2022/03/24 05:14:33;;;;;;;60.35;38.15;;;;;;;0.36;94.69;102936.97;5007650;28;20251;-41
2022/03/24 05:17:00;;;;;;;57.40;37.55;;;;;;;0.44;94.96;102939.91;5009139;28;20662;-42
2022/03/24 05:19:25;;;;;;;55.00;37.65;;;;;;;0.46;94.44;102929.41;5009342;28;20192;-42
2022/03/24 05:21:51;;;;;;;56.97;37.45;;;;;;;0.45;94.44;102936.41;5008975;28;20517;-42
2022/03/24 05:24:17;;;;;;;60.08;38.17;;;;;;;0.49;94.50;102927.78;5009972;28;20699;-42
2022/03/24 05:26:43;;;;;;;57.20;39.15;;;;;;;0.41;94.23;102935.41;5012824;28;20169;-42
2022/03/24 05:29:09;;;;;;;61.83;38.88;;;;;;;0.41;94.77;102935.41;5012362;28;20218;-42
2022/03/24 05:31:34;;;;;;;64.35;38.95;;;;;;;0.44;94.75;102941.63;5013154;28;20196;-42
2022/03/24 05:34:00;;;;;;;59.20;39.55;;;;;;;0.38;94.74;102942.31;5011925;28;20232;-43
2022/03/24 05:36:26;;;;;;;63.78;39.92;;;;;;;0.45;94.93;102938.16;5012173;28;20260;-41
2022/03/24 05:38:51;;;;;;;62.30;40.35;;;;;;;0.37;95.89;102933.50;5012437;28;20200;-41
2022/03/24 05:41:17;;;;;;;67.28;41.95;;;;;;;0.26;95.28;102926.91;5012390;28;20242;-42
2022/03/24 05:44:02;;;;;;;67.40;42.38;;;;;;;0.31;95.93;102941.19;5012074;28;20198;-42
2022/03/24 05:46:35;;;;;;;68.72;41.10;;;;;;;0.45;96.54;102941.69;5012417;28;20177;-41
2022/03/24 05:49:03;;;;;;;66.57;41.58;;;;;;;0.59;96.22;102937.84;5011971;28;20184;-42
2022/03/24 05:51:56;;;;;;;69.57;43.85;;;;;;;0.71;96.57;102947.03;4998530;28;20597;-42
2022/03/24 05:54:22;;;;;;;61.88;39.97;;;;;;;0.86;96.16;102930.88;5011921;28;20259;-42
2022/03/24 05:56:48;;;;;;;65.47;42.33;;;;;;;0.84;95.86;102945.75;5010648;28;20259;-42
2022/03/24 05:59:15;;;;;;;67.05;43.30;;;;;;;0.88;96.14;102939.75;5011399;28;20176;-42
2022/03/24 06:01:43;;;;;;;69.50;43.83;;;;;;;0.80;95.25;102943.00;5011663;28;20263;-43
2022/03/24 06:04:13;;;;;;;69.43;45.45;;;;;;;0.89;95.57;102954.72;5009869;28;20201;-43
2022/03/24 06:06:39;;;;;;;72.80;44.63;;;;;;;0.92;95.80;102938.97;5012242;28;20267;-42
2022/03/24 06:09:06;;;;;;;70.07;43.60;;;;;;;1.01;96.14;102948.16;5011790;28;20207;-43
2022/03/24 06:11:35;;;;;;;72.13;42.67;;;;;;;1.08;95.94;102946.63;5011941;28;20168;-44
2022/03/24 06:14:00;;;;;;;68.78;43.38;;;;;;;1.13;95.73;102937.09;5011688;28;20292;-42
2022/03/24 06:16:27;;;;;;;68.68;43.38;;;;;;;1.18;96.40;102946.09;5012472;28;20247;-42
2022/03/24 06:18:52;;;;;;;67.50;42.80;;;;;;;1.35;96.55;102954.56;5010910;28;20185;-42
2022/03/24 06:21:18;;;;;;;70.10;44.78;;;;;;;1.47;96.01;102938.25;5012289;28;20181;-44
2022/03/24 06:23:43;;;;;;;70.22;43.97;;;;;;;1.55;96.09;102949.06;5011468;28;20248;-44
2022/03/24 06:26:08;;;;;;;69.43;43.17;;;;;;;1.69;95.81;102944.25;5012231;28;20293;-43
2022/03/24 06:28:35;;;;;;;67.22;42.83;;;;;;;1.77;95.92;102946.31;5011815;28;20179;-42
2022/03/24 06:31:00;;;;;;;67.05;42.90;;;;;;;1.85;95.68;102950.06;5012009;28;20227;-43
2022/03/24 06:33:26;;;;;;;66.75;44.45;;;;;;;1.95;95.65;102953.03;5011408;28;20177;-44
2022/03/24 06:35:52;;;;;;;69.07;44.28;;;;;;;2.04;95.66;102948.91;5010920;28;20685;-43
2022/03/24 06:38:18;;;;;;;66.70;44.03;;;;;;;2.17;95.24;102962.53;5011716;28;20252;-43
2022/03/24 06:40:44;;;;;;;68.53;44.35;;;;;;;2.28;95.40;102958.44;5111875;23;20210;-43
2022/03/24 06:43:12;;;;;;;68.45;51.20;;;;;;;2.41;95.62;102965.00;5010126;28;20545;-42
2022/03/24 06:45:38;;;;;;;65.90;45.22;;;;;;;2.50;95.17;102954.69;5026271;28;20196;-44
2022/03/24 06:48:07;;;;;;;64.57;44.33;;;;;;;2.64;95.52;102965.66;5010420;28;20227;-45
2022/03/24 06:50:34;;;;;;;59.35;41.97;;;;;;;2.77;95.24;102967.81;5012490;28;20173;-42
2022/03/24 06:53:00;;;;;;;72.93;45.28;;;;;;;2.91;95.38;102964.66;5012208;28;20169;-43
2022/03/24 06:55:25;;;;;;;69.95;45.47;;;;;;;3.03;95.21;102963.25;5012177;28;20196;-43
2022/03/24 06:57:51;;;;;;;66.63;43.53;;;;;;;3.21;94.84;102967.25;5012409;28;20169;-44
2022/03/24 07:00:16;;;;;;;70.80;45.08;;;;;;;3.33;94.74;102969.34;5013859;28;20173;-44
2022/03/24 07:02:43;;;;;;;66.85;44.75;;;;;;;3.46;94.74;102966.16;5031532;28;20176;-41
2022/03/24 07:05:11;;;;;;;67.90;44.38;;;;;;;3.56;94.15;102970.81;5029940;28;20200;-45
2022/03/24 07:07:38;;;;;;;67.60;45.30;;;;;;;3.70;94.18;102965.88;5031681;28;20168;-44
2022/03/24 07:10:04;;;;;;;73.13;47.05;;;;;;;3.80;93.82;102959.91;5029736;28;20247;-41
2022/03/24 07:12:30;;;;;;;69.70;47.03;;;;;;;3.97;93.82;102960.31;5030986;28;20180;-42
2022/03/24 07:14:55;;;;;;;66.63;44.90;;;;;;;4.16;93.11;102966.06;5031588;28;20196;-44
2022/03/24 07:17:21;;;;;;;75.22;47.60;;;;;;;4.37;93.19;102962.97;5032263;28;20180;-45
2022/03/24 07:19:47;;;;;;;70.63;47.65;;;;;;;4.46;93.49;102952.53;5029928;28;20548;-44
2022/03/24 07:22:13;;;;;;;65.95;47.17;;;;;;;4.56;94.04;102964.28;5031555;28;20164;-41
2022/03/24 07:24:39;;;;;;;71.25;47.38;;;;;;;4.72;94.10;102966.34;5031185;28;20662;-42
2022/03/24 07:27:05;;;;;;;69.15;47.63;;;;;;;4.87;94.20;102953.38;5031258;28;20222;-42
2022/03/24 07:29:31;;;;;;;67.22;46.97;;;;;;;5.04;94.14;102967.00;5031375;28;20618;-43
2022/03/24 07:31:56;;;;;;;63.05;44.63;;;;;;;5.19;93.71;102954.88;5030938;28;20168;-45
2022/03/24 07:34:23;;;;;;;63.40;43.75;;;;;;;5.43;93.00;102957.09;5031153;28;20246;-42
2022/03/24 07:36:48;;;;;;;55.60;39.05;;;;;;;5.62;90.90;102955.59;5045882;28;20230;-44
2022/03/24 07:39:15;;;;;;;51.58;36.72;;;;;;;5.96;86.35;102954.41;5030589;28;20187;-41
2022/03/24 07:41:40;;;;;;;52.83;37.83;;;;;;;6.24;82.23;102958.38;5030244;28;20206;-42
2022/03/24 07:44:07;;;;;;;48.45;33.53;;;;;;;6.81;77.36;102965.31;5031073;28;20241;-45
2022/03/24 07:46:33;;;;;;;47.97;32.95;;;;;;;7.01;72.33;102962.00;5030776;28;20168;-44
2022/03/24 07:48:58;;;;;;;53.17;32.42;;;;;;;7.12;70.59;102951.44;5030265;28;20283;-44
2022/03/24 07:51:24;;;;;;;45.78;31.95;;;;;;;7.32;69.27;102947.19;5026345;28;20243;-46
2022/03/24 07:53:51;;;;;;;46.53;31.25;;;;;;;7.68;68.01;102945.75;5012602;28;20211;-44
2022/03/24 07:56:19;;;;;;;44.92;31.88;;;;;;;7.81;67.82;102944.06;5030272;28;20160;-46
2022/03/24 07:58:45;;;;;;;43.05;31.70;;;;;;;7.92;67.57;102952.16;5030297;28;20187;-46
2022/03/24 08:01:11;;;;;;;41.17;30.77;;;;;;;8.00;65.69;102945.97;5029365;28;20562;-45
2022/03/24 08:03:37;;;;;;;41.17;30.73;;;;;;;8.29;64.11;102952.34;5029889;28;20310;-44
2022/03/24 08:06:02;;;;;;;44.38;30.88;;;;;;;8.82;63.01;102952.63;5029435;28;20176;-46
2022/03/24 08:08:29;;;;;;;39.92;29.95;;;;;;;8.93;61.95;102941.97;5029936;28;20171;-45
2022/03/24 08:10:55;;;;;;;41.15;30.00;;;;;;;8.98;60.85;102940.19;5029741;28;20543;-45
2022/03/24 08:13:21;;;;;;;45.28;31.92;;;;;;;9.03;61.19;102951.81;5028921;28;20187;-45
2022/03/24 08:15:48;;;;;;;42.38;29.25;;;;;;;9.30;59.67;102942.03;5030010;28;20199;-44
2022/03/24 08:18:14;;;;;;;43.60;30.05;;;;;;;9.76;58.81;102949.19;5030009;28;20176;-44
2022/03/24 08:20:42;;;;;;;42.47;31.00;;;;;;;9.89;56.09;102948.28;5029961;28;20184;-45
2022/03/24 08:23:08;;;;;;;42.72;30.67;;;;;;;10.01;56.67;102945.56;5029399;28;20235;-44
2022/03/24 08:25:35;;;;;;;42.40;30.00;;;;;;;9.87;56.43;102950.94;5029556;28;20184;-43
2022/03/24 08:28:01;;;;;;;45.15;30.02;;;;;;;9.79;55.72;102950.06;5029998;28;20176;-45
2022/03/24 08:30:26;;;;;;;39.88;30.75;;;;;;;10.03;56.70;102945.56;5029932;28;20653;-45
2022/03/24 08:32:51;;;;;;;43.63;30.88;;;;;;;10.32;55.41;102945.53;5029448;28;20188;-45
2022/03/24 08:35:17;;;;;;;45.17;31.35;;;;;;;10.19;55.11;102955.38;5029810;28;20203;-45
2022/03/24 08:37:43;;;;;;;41.75;30.20;;;;;;;10.49;54.69;102943.69;5029483;28;20172;-44
2022/03/24 08:40:10;;;;;;;41.30;30.02;;;;;;;10.61;53.64;102950.78;5029594;28;20234;-43
2022/03/24 08:42:37;;;;;;;42.15;28.10;;;;;;;10.54;52.44;102950.81;5029244;28;20179;-45
2022/03/24 08:45:04;;;;;;;41.10;30.38;;;;;;;10.72;52.73;102943.56;5029669;28;20283;-45
2022/03/24 08:47:29;;;;;;;42.00;30.52;;;;;;;10.91;52.49;102951.50;5029880;28;20644;-43
2022/03/24 08:49:55;;;;;;;40.20;29.85;;;;;;;11.01;52.74;102949.69;5029270;28;20254;-44
2022/03/24 08:52:21;;;;;;;42.05;29.55;;;;;;;11.21;51.64;102954.91;5029134;28;20555;-45
2022/03/24 08:54:48;;;;;;;38.05;29.13;;;;;;;11.36;51.04;102941.38;5029200;28;20212;-45
2022/03/24 08:57:13;;;;;;;39.00;28.42;;;;;;;11.23;50.58;102953.13;5029699;28;20562;-47
2022/03/24 08:59:39;;;;;;;43.70;29.27;;;;;;;11.47;49.04;102946.69;5031781;28;20180;-43
2022/03/24 09:02:04;;;;;;;39.95;30.08;;;;;;;11.54;48.61;102946.63;5033107;28;20179;-43
2022/03/24 09:04:30;;;;;;;35.75;27.98;;;;;;;11.43;48.43;102940.44;5024048;28;20776;-44
2022/03/24 09:06:55;;;;;;;38.97;29.05;;;;;;;11.55;49.31;102940.34;5015078;28;20177;-44
2022/03/24 09:09:22;;;;;;;36.00;27.67;;;;;;;11.67;48.12;102939.34;5013237;28;20235;-44
2022/03/24 09:11:49;;;;;;;39.95;29.55;;;;;;;11.83;48.79;102944.56;5010713;28;20540;-44
2022/03/24 09:14:16;;;;;;;40.25;29.23;;;;;;;11.46;48.86;102943.13;5009845;28;20216;-43
2022/03/24 09:16:42;;;;;;;40.22;29.25;;;;;;;11.81;48.48;102946.41;5012990;28;20570;-45
2022/03/24 09:19:07;;;;;;;42.33;30.60;;;;;;;12.01;48.75;102951.59;5013408;28;20611;-45
2022/03/24 09:21:33;;;;;;;48.03;29.73;;;;;;;12.29;48.10;102939.66;5012835;28;20196;-45
2022/03/24 09:23:58;;;;;;;43.63;28.27;;;;;;;12.42;47.86;102942.16;5028727;28;20279;-43
2022/03/24 09:26:24;;;;;;;42.60;30.13;;;;;;;12.80;47.24;102943.50;5013386;28;20200;-46
2022/03/24 09:28:52;;;;;;;40.42;30.20;;;;;;;12.94;47.00;102942.41;5013002;28;20173;-47
2022/03/24 09:31:21;;;;;;;39.42;30.35;;;;;;;13.05;46.79;102939.53;5012963;28;20180;-45
2022/03/24 09:33:46;;;;;;;39.65;29.50;;;;;;;13.17;45.77;102941.16;5012368;28;20219;-44
2022/03/24 09:36:12;;;;;;;41.17;29.00;;;;;;;13.38;45.72;102932.78;5013065;28;20188;-44
2022/03/24 09:38:38;;;;;;;42.85;27.50;;;;;;;13.39;44.07;102944.44;5013224;28;20180;-44
2022/03/24 09:41:06;;;;;;;37.80;27.95;;;;;;;13.20;44.87;102946.50;5012703;28;20180;-45
2022/03/24 09:43:36;;;;;;;38.55;28.42;;;;;;;13.17;44.34;102946.56;5012616;28;20677;-44
2022/03/24 09:46:02;;;;;;;37.75;27.73;;;;;;;13.41;43.91;102934.53;5013517;28;20165;-45
2022/03/24 09:48:28;;;;;;;37.88;28.83;;;;;;;13.50;44.32;102947.84;5012653;28;20187;-45
2022/03/24 09:50:54;;;;;;;37.10;28.33;;;;;;;13.35;44.57;102938.22;5012834;28;20176;-45
2022/03/24 09:53:20;;;;;;;37.47;28.33;;;;;;;13.58;44.43;102935.16;5012005;28;20165;-45
2022/03/24 09:55:47;;;;;;;39.60;28.83;;;;;;;13.60;43.98;102945.91;5016429;28;20232;-43
2022/03/24 09:58:13;;;;;;;40.38;29.10;;;;;;;13.50;44.62;102945.16;5027038;28;20442;-43
2022/03/24 10:00:38;;;;;;;38.00;28.05;;;;;;;13.76;44.32;102941.13;5012359;28;20181;-43
2022/03/24 10:03:18;;;;;;;33.80;27.63;;;;;;;13.76;44.13;102941.13;5010926;28;20216;-44
2022/03/24 10:06:04;;;;;;;41.28;28.35;;;;;;;13.63;44.02;102936.88;5013002;28;20188;-43
2022/03/24 10:08:30;;;;;;;37.42;28.60;;;;;;;13.76;44.48;102930.34;5012422;28;20185;-45
2022/03/24 10:11:07;;;;;;;36.78;27.40;;;;;;;14.28;44.74;102933.84;5010667;28;20212;-43
2022/03/24 10:13:44;;;;;;;38.47;28.30;;;;;;;14.25;43.08;102940.19;5011356;28;20169;-45
2022/03/24 10:16:11;;;;;;;37.17;29.35;;;;;;;14.24;43.50;102943.81;5012148;28;20243;-46
2022/03/24 10:18:36;;;;;;;38.60;28.95;;;;;;;14.09;42.98;102944.13;5012443;28;20161;-45
2022/03/24 10:21:05;;;;;;;34.92;28.75;;;;;;;13.90;44.37;102936.38;5011259;28;20238;-44
2022/03/24 10:23:35;;;;;;;40.72;29.08;;;;;;;14.07;43.01;102938.75;5011649;28;20184;-45
2022/03/24 10:26:05;;;;;;;40.85;29.65;;;;;;;14.14;43.31;102929.63;5011989;28;20157;-45
2022/03/24 10:28:30;;;;;;;39.03;29.45;;;;;;;14.20;42.87;102923.22;5012415;28;20177;-45
2022/03/24 10:30:59;;;;;;;38.38;29.83;;;;;;;14.36;43.34;102930.06;5012286;28;20165;-45
2022/03/24 10:33:40;;;;;;;37.05;29.67;;;;;;;14.57;42.58;102919.81;5011545;28;20169;-44
2022/03/24 10:36:17;;;;;;;38.88;28.52;;;;;;;14.50;42.48;102916.31;5012064;28;20173;-46
2022/03/24 10:38:49;;;;;;;37.35;29.27;;;;;;;14.77;43.18;102922.06;5011726;28;20176;-44
2022/03/24 10:41:18;;;;;;;37.78;29.15;;;;;;;14.52;42.59;102916.28;5011441;28;20177;-46
2022/03/24 10:43:44;;;;;;;39.60;29.92;;;;;;;14.50;41.76;102912.75;5011475;28;20192;-46
2022/03/24 10:46:30;;;;;;;36.20;28.40;;;;;;;14.70;42.76;102921.31;5011407;28;20185;-45
2022/03/24 10:48:56;;;;;;;37.65;27.80;;;;;;;14.33;41.91;102921.19;5011723;28;20157;-46
2022/03/24 10:51:29;;;;;;;37.45;28.70;;;;;;;14.41;41.11;102911.13;5011474;28;20219;-44
2022/03/24 10:54:17;;;;;;;32.30;27.60;;;;;;;15.02;40.89;102911.59;5011019;28;20271;-45
2022/03/24 10:57:01;;;;;;;36.20;27.58;;;;;;;14.94;41.74;102919.00;5010338;28;20184;-45
2022/03/24 10:59:33;;;;;;;36.88;27.30;;;;;;;14.94;41.94;102916.28;5011737;28;20173;-46
2022/03/24 11:01:59;;;;;;;34.90;26.70;;;;;;;14.99;40.58;102912.56;5011847;28;20169;-44
2022/03/24 11:04:25;;;;;;;37.15;27.20;;;;;;;15.11;40.82;102906.00;5011224;28;20208;-45
2022/03/24 11:06:52;;;;;;;33.42;25.95;;;;;;;15.35;40.57;102911.69;5012049;28;20173;-45
2022/03/24 11:09:22;;;;;;;34.70;26.13;;;;;;;15.44;40.23;102916.88;5011861;28;20262;-46
2022/03/24 11:11:48;;;;;;;35.05;27.58;;;;;;;15.23;40.10;102916.47;5012001;28;20635;-47
2022/03/24 11:14:13;;;;;;;36.80;27.75;;;;;;;14.87;39.90;102917.34;5011409;28;20232;-48